Time;durP1;ratioP1;P1;durP2;ratioP2;P2;SDS_P1;SDS_P2;PMS_P1;PMS_P2;Temp;Humidity;BMP_temperature;BMP_pressure;BME280_temperature;BME280_humidity;BME280_pressure;Samples;Min_cycle;Max_cycle;Signal;HPM_P1;HPM_P2
2022/10/26 19:44:12;;;;;;;134.40;71.70;;;;;;;11.55;100.00;101299.52;1522442;85;25182;-77
2022/10/26 19:46:39;;;;;;;106.60;62.13;;;;;;;11.53;100.00;101305.44;1499192;86;21559;-78
2022/10/26 19:49:05;;;;;;;100.73;58.87;;;;;;;11.59;100.00;101307.55;1482417;88;21536;-79
2022/10/26 19:51:31;;;;;;;82.57;51.67;;;;;;;11.66;100.00;101303.41;1482942;86;21721;-76
2022/10/26 19:53:58;;;;;;;76.73;46.47;;;;;;;11.74;100.00;101305.41;1489445;86;22709;-79
2022/10/26 19:56:24;;;;;;;64.20;37.80;;;;;;;11.85;100.00;101308.42;1481611;88;21606;-80
2022/10/26 19:58:50;;;;;;;66.97;41.60;;;;;;;11.93;100.00;101316.09;1476860;88;21441;-80
2022/10/26 20:01:17;;;;;;;65.20;39.47;;;;;;;12.03;100.00;101312.66;1470820;86;22011;-79
2022/10/26 20:03:44;;;;;;;56.67;35.77;;;;;;;12.09;100.00;101312.95;1482984;86;21734;-78
2022/10/26 20:06:12;;;;;;;59.30;37.57;;;;;;;12.19;100.00;101319.09;1451558;89;22708;-80
2022/10/26 20:08:40;;;;;;;57.43;34.37;;;;;;;12.30;100.00;101312.00;1458983;89;21524;-85
2022/10/26 20:11:07;;;;;;;56.30;32.30;;;;;;;12.37;100.00;101313.98;1437941;89;21390;-85
2022/10/26 20:13:36;;;;;;;49.13;33.30;;;;;;;12.42;100.00;101317.53;1457258;88;22013;-86
2022/10/26 20:16:03;;;;;;;48.67;31.40;;;;;;;12.46;100.00;101318.95;1399604;89;21375;-84
2022/10/26 20:18:29;;;;;;;43.07;30.70;;;;;;;12.51;100.00;101319.36;1447634;89;21477;-85
2022/10/26 20:20:55;;;;;;;46.57;31.77;;;;;;;12.55;100.00;101315.47;1463484;89;21589;-84
2022/10/26 20:23:21;;;;;;;49.10;30.13;;;;;;;12.59;100.00;101316.85;1473494;88;21493;-84
2022/10/26 20:25:50;;;;;;;53.83;31.37;;;;;;;12.62;100.00;101321.88;1461991;88;22402;-83
2022/10/26 20:28:18;;;;;;;51.17;32.10;;;;;;;12.67;100.00;101319.31;1446740;89;21574;-85
2022/10/26 20:30:48;;;;;;;41.57;29.10;;;;;;;12.73;100.00;101320.91;1435742;89;21441;-89
2022/10/26 20:33:14;;;;;;;45.08;29.02;;;;;;;12.78;100.00;101324.49;1452577;89;21954;-86
2022/10/26 20:35:41;;;;;;;46.07;28.43;;;;;;;12.82;100.00;101320.56;1460004;89;21485;-84
2022/10/26 20:38:20;;;;;;;50.97;30.73;;;;;;;12.88;100.00;101318.67;1434973;90;21590;-86
2022/10/26 20:40:56;;;;;;;41.70;27.27;;;;;;;12.92;100.00;101321.87;1449746;89;21732;-84
2022/10/26 20:43:24;;;;;;;47.00;28.43;;;;;;;12.92;100.00;101321.87;1448951;89;21575;-85
2022/10/26 20:45:51;;;;;;;42.70;29.73;;;;;;;12.92;100.00;101321.87;1441886;89;21464;-86
2022/10/26 20:48:18;;;;;;;44.57;28.40;;;;;;;12.88;100.00;101328.80;1427339;91;21626;-86
2022/10/26 20:51:08;;;;;;;38.77;28.00;;;;;;;12.84;100.00;101319.94;1429245;91;21442;-85
2022/10/26 20:53:41;;;;;;;41.00;27.73;;;;;;;12.80;100.00;101329.16;1419312;89;21665;-85
2022/10/26 20:56:24;;;;;;;42.47;29.57;;;;;;;12.74;100.00;101324.41;1476536;87;22008;-83
2022/10/26 20:58:56;;;;;;;39.33;27.27;;;;;;;12.71;100.00;101333.48;1432021;90;21436;-83
2022/10/26 21:01:32;;;;;;;40.00;27.03;;;;;;;12.70;100.00;101330.49;1476730;86;22438;-86
2022/10/26 21:04:01;;;;;;;35.43;26.30;;;;;;;12.70;100.00;101332.31;1465387;87;21549;-84
2022/10/26 21:06:28;;;;;;;39.70;27.77;;;;;;;12.68;100.00;101331.61;1483840;87;21381;-84
2022/10/26 21:08:56;;;;;;;32.33;24.27;;;;;;;12.66;100.00;101329.11;1473717;86;21395;-85
2022/10/26 21:11:24;;;;;;;40.43;26.60;;;;;;;12.67;100.00;101324.63;1471479;87;21603;-85
2022/10/26 21:13:53;;;;;;;40.20;28.30;;;;;;;12.69;100.00;101320.86;1435866;91;22434;-85
2022/10/26 21:16:20;;;;;;;41.17;28.70;;;;;;;12.70;100.00;101322.52;1466179;88;21618;-78
2022/10/26 21:18:46;;;;;;;49.60;30.43;;;;;;;12.68;100.00;101320.98;1474387;88;21493;-79
2022/10/26 21:21:12;;;;;;;41.17;28.43;;;;;;;12.61;100.00;101316.23;1471399;88;22785;-81
2022/10/26 21:23:41;;;;;;;36.40;25.27;;;;;;;12.58;100.00;101323.15;1479503;88;21833;-80
2022/10/26 21:26:08;;;;;;;38.57;27.37;;;;;;;12.56;100.00;101318.45;1482188;88;21500;-80
2022/10/26 21:28:38;;;;;;;36.90;24.10;;;;;;;12.52;100.00;101311.76;1470209;88;21470;-82
2022/10/26 21:31:10;;;;;;;38.85;25.97;;;;;;;12.48;100.00;101318.30;1468130;88;21566;-81
2022/10/26 21:33:37;;;;;;;35.63;25.67;;;;;;;12.44;100.00;101319.57;1426163;91;21459;-82
2022/10/26 21:36:08;;;;;;;42.80;28.30;;;;;;;12.37;100.00;101324.60;1475107;88;21478;-81
2022/10/26 21:38:34;;;;;;;37.13;25.40;;;;;;;12.32;100.00;101323.33;1437046;88;21407;-80
2022/10/26 21:41:12;;;;;;;38.37;25.43;;;;;;;12.25;100.00;101322.19;1493083;87;21477;-82
2022/10/26 21:43:41;;;;;;;38.30;25.13;;;;;;;12.17;100.00;101330.36;1477420;88;22859;-81
2022/10/26 21:46:09;;;;;;;42.43;26.33;;;;;;;12.12;100.00;101325.94;1490152;88;21611;-81
2022/10/26 21:48:36;;;;;;;42.47;29.43;;;;;;;12.10;100.00;101325.22;1473092;88;21529;-82
2022/10/26 21:51:05;;;;;;;39.30;26.97;;;;;;;12.09;100.00;101335.99;1475409;88;21442;-82
2022/10/26 21:53:31;;;;;;;43.37;28.43;;;;;;;12.07;100.00;101330.80;1476789;86;22570;-83
2022/10/26 21:56:10;;;;;;;43.90;29.20;;;;;;;12.06;100.00;101332.28;1477381;88;21425;-82
2022/10/26 21:58:37;;;;;;;40.67;28.03;;;;;;;12.07;100.00;101326.83;1476438;88;21720;-82
2022/10/26 22:01:19;;;;;;;43.37;29.10;;;;;;;12.08;100.00;101330.31;1477385;88;21678;-83
2022/10/26 22:03:46;;;;;;;38.43;26.93;;;;;;;12.05;100.00;101336.73;1477513;88;21500;-82
2022/10/26 22:06:16;;;;;;;41.70;27.87;;;;;;;12.03;100.00;101337.38;1451867;89;22971;-81
2022/10/26 22:08:43;;;;;;;39.33;25.65;;;;;;;12.04;100.00;101338.20;1485611;88;22208;-80
2022/10/26 22:11:19;;;;;;;40.43;26.73;;;;;;;12.06;100.00;101337.09;1473615;88;22372;-83
2022/10/26 22:13:48;;;;;;;45.10;27.43;;;;;;;12.09;100.00;101333.34;1487504;86;21551;-81
2022/10/26 22:16:21;;;;;;;44.83;29.20;;;;;;;12.11;100.00;101330.91;1485888;86;21567;-83
2022/10/26 22:18:49;;;;;;;51.80;30.67;;;;;;;12.11;100.00;101330.91;1486207;86;21611;-83
2022/10/26 22:21:18;;;;;;;56.93;32.20;;;;;;;12.07;100.00;101331.30;1491209;86;21419;-82
2022/10/26 22:23:45;;;;;;;62.10;35.40;;;;;;;12.05;100.00;101334.07;1478157;88;21434;-82
2022/10/26 22:26:16;;;;;;;67.13;36.03;;;;;;;12.04;100.00;101333.73;1475214;87;21419;-83
2022/10/26 22:28:44;;;;;;;71.60;38.92;;;;;;;12.05;100.00;101336.73;1452593;88;21566;-83
2022/10/26 22:31:15;;;;;;;69.97;36.00;;;;;;;12.08;100.00;101339.60;1473100;86;21544;-81
2022/10/26 22:33:41;;;;;;;;;;;;;;;12.07;100.00;101344.07;1452645;89;22691;-82
2022/10/26 22:36:12;;;;;;;57.37;31.43;;;;;;;12.06;100.00;101339.75;1443083;89;20331;-80
2022/10/26 22:38:38;;;;;;;57.55;30.97;;;;;;;12.06;100.00;101339.75;1475936;88;21430;-81
2022/10/26 22:41:06;;;;;;;48.53;29.07;;;;;;;12.08;100.00;101343.58;1480547;86;22283;-82
2022/10/26 22:43:32;;;;;;;44.70;27.90;;;;;;;12.07;100.00;101346.72;1470515;88;21507;-81
2022/10/26 22:46:05;;;;;;;51.57;27.03;;;;;;;12.04;100.00;101343.02;1476732;87;21618;-80
2022/10/26 22:48:32;;;;;;;60.93;27.70;;;;;;;12.03;100.00;101351.96;1475322;88;21411;-84
2022/10/26 22:51:00;;;;;;;59.73;25.90;;;;;;;12.02;100.00;101349.43;1472966;88;21455;-83
2022/10/26 22:53:26;;;;;;;85.77;26.30;;;;;;;11.97;100.00;101348.52;1468335;87;21818;-80
2022/10/26 22:55:52;;;;;;;56.67;27.33;;;;;;;11.91;100.00;101348.57;1474256;88;21418;-85
2022/10/26 22:58:18;;;;;;;56.30;26.80;;;;;;;11.87;100.00;101348.95;1476385;88;21458;-83
2022/10/26 23:00:44;;;;;;;66.30;22.57;;;;;;;11.84;100.00;101353.17;1468009;88;21397;-84
2022/10/26 23:03:11;;;;;;;44.93;22.70;;;;;;;11.82;100.00;101352.45;1476633;88;21485;-83
2022/10/26 23:05:40;;;;;;;38.03;22.07;;;;;;;11.79;100.00;101353.56;1476042;87;21382;-84
2022/10/26 23:08:06;;;;;;;34.10;22.30;;;;;;;11.79;100.00;101358.03;1475061;87;22359;-82
2022/10/26 23:10:32;;;;;;;35.30;20.17;;;;;;;11.78;100.00;101359.02;1480789;87;21651;-81
2022/10/26 23:12:58;;;;;;;35.83;19.57;;;;;;;11.75;100.00;101354.32;1473348;87;21463;-82
2022/10/26 23:15:24;;;;;;;28.07;18.80;;;;;;;11.76;100.00;101348.52;1479086;88;21530;-85
2022/10/26 23:17:52;;;;;;;24.63;18.83;;;;;;;11.73;100.00;101350.95;1469759;88;21389;-82
2022/10/26 23:20:18;;;;;;;29.23;18.83;;;;;;;11.71;100.00;101345.45;1473396;88;22016;-84
2022/10/26 23:22:45;;;;;;;31.80;19.20;;;;;;;11.65;100.00;101348.15;1475678;88;21544;-88
2022/10/26 23:25:11;;;;;;;24.07;19.63;;;;;;;11.60;100.00;101349.52;1476007;88;21308;-85
2022/10/26 23:27:36;;;;;;;24.27;19.13;;;;;;;11.53;100.00;101351.34;1482903;88;21486;-85
2022/10/26 23:30:03;;;;;;;25.00;18.53;;;;;;;11.47;100.00;101351.03;1477231;88;22328;-84
2022/10/26 23:32:29;;;;;;;23.93;19.57;;;;;;;11.42;100.00;101351.44;1479603;88;21411;-86
2022/10/26 23:34:55;;;;;;;22.90;18.77;;;;;;;11.39;100.00;101349.52;1474916;88;21426;-85
2022/10/26 23:37:21;;;;;;;26.30;18.83;;;;;;;11.38;100.00;101349.17;1473493;88;22446;-86
2022/10/26 23:39:47;;;;;;;23.63;19.00;;;;;;;11.36;100.00;101354.59;1483136;88;21389;-82
2022/10/26 23:42:13;;;;;;;21.27;18.83;;;;;;;11.31;100.00;101355.48;1470652;88;21462;-84
2022/10/26 23:44:39;;;;;;;25.63;19.30;;;;;;;11.28;100.00;101357.91;1483506;86;21418;-85
2022/10/26 23:47:05;;;;;;;24.27;19.23;;;;;;;11.28;100.00;101362.37;1483821;88;21542;-85
2022/10/26 23:49:31;;;;;;;26.17;19.70;;;;;;;11.27;100.00;101361.50;1495963;86;22217;-83
2022/10/26 23:51:57;;;;;;;29.87;19.83;;;;;;;11.29;100.00;101362.72;1477988;88;21353;-83
2022/10/26 23:54:23;;;;;;;30.00;20.97;;;;;;;11.28;100.00;101361.05;1480618;88;21411;-85
2022/10/26 23:56:49;;;;;;;40.93;19.50;;;;;;;11.24;100.00;101365.74;1479426;88;21396;-86
2022/10/26 23:59:15;;;;;;;40.07;20.23;;;;;;;11.23;100.00;101370.70;1483664;88;21434;-84
